White Mountain Summit Weather observations

Data are for 10 minute period ending at time listed.
 Day   Time   Solar   Ave.   Ave.  Ave.  Vector    Max.    Baro.  
  of    of     Rad.   Air    Rel.  Wind   Wind     Wind   Press.  
Year   Day            Temp.  Hum.  Speed  Dir.     Gust           
2016   (PST)   W/m2    F      %     mph   deg.      mph     mb.   
-------------------------------------------------------------------
  41   21:30    0.0    26   12.9    20    269.3    21.2   606.9 
  41   21:40    0.0    27   11.6    19    273.3    21.2   606.8 
  41   21:50    0.0    27   10.9    19    274.7    21.2   606.8 
  41   22:00    0.0    27   13.7    19    274.3    21.2   606.8 
  41   22:10    0.0    27   14.5    20    272.8    21.2   606.8 
  41   22:20    0.0    27   14.4    19    272.5    21.2   606.7 
  41   22:30    0.0    27   14.3    21    273.3    23.5   606.7 
  41   22:40    0.0    27   12.6    21    274.7    23.5   606.7 
  41   22:50    0.0    27   12.4    22    275.8    25.9   606.7 
  41   23:00    0.0    26   12.1    26    274.7    28.2   606.7 
  41   23:10    0.0    26   12.8    26    273.1    28.2   606.6 
  41   23:20    0.0    27   15.9    26    271.2    28.2   606.6 
  41   23:30    0.0    27   15.9    25    270.9    28.2   606.6 
  41   23:40    0.0    27   14.7    25    271.3    28.2   606.5 
  41   23:50    0.0    27   15.6    25    272.3    28.2   606.5 
  42    0:00    0.0    27   17.0    25    272.7    28.2   606.5 
  42    0:10    0.0    27   21.1    26    271.6    28.2   606.4 
  42    0:20    0.0    27   22.9    25    270.3    28.2   606.4 
  42    0:30    0.0    27   22.3    22    272.0    25.9   606.4 
  42    0:40    0.0    27   22.5    22    272.2    25.9   606.3 
  42    0:50    0.0    27   23.6    23    271.0    25.9   606.3 
  42    1:00    0.0    27   22.9    22    271.7    25.9   606.3 
  42    1:10    0.0    27   19.2    20    272.0    21.2   606.3 
  42    1:20    0.0    27   17.8    22    271.7    23.5   606.2 
  42    1:30    0.0    26   17.3    23    273.1    25.9   606.2 
  42    1:40    0.0    26   14.7    23    272.9    25.9   606.2 
  42    1:50    0.0    26   16.2    25    273.2    25.9   606.2 
  42    2:00    0.0    26   16.1    25    273.6    25.9   606.2 
  42    2:10    0.0    26   18.1    25    273.4    25.9   606.1 
  42    2:20    0.0    26   18.4    24    274.7    25.9   606.1 
  42    2:30    0.0    26   17.9    23    274.5    25.9   606.2 
  42    2:40    0.0    26   17.5    23    274.2    25.9   606.2 
  42    2:50    0.0    26   16.6    24    275.0    25.9   606.1 
  42    3:00    0.0    26   16.8    24    270.1    25.9   606.1 
  42    3:10    0.0    26   17.8    25    269.3    25.9   606.0 
  42    3:20    0.0    26   20.9    23    270.2    25.9   606.0 
  42    3:30    0.0    26   23.2    23    271.3    25.9   606.0 
  42    3:40    0.0    26   23.1    21    272.3    23.5   605.9 
  42    3:50    0.0    26   25.1    19    272.5    21.2   605.9 
  42    4:00    0.0    26   23.5    17    276.3    18.8   606.0 
  42    4:10    0.0    26   26.0    18    273.6    18.8   606.0 
  42    4:20    0.0    26   28.1    16    280.3    18.8   606.0 
  42    4:30    0.0    26   30.4    17    269.5    18.8   606.0 
  42    4:40    0.0    26   30.5    16    274.5    18.8   606.0 
  42    4:50    0.0    26   29.9    14    278.2    16.5   606.0 
  42    5:00    0.0    26   30.0    14    275.8    16.5   606.0 
  42    5:10    0.0    26   29.9    14    276.1    16.5   606.0 
  42    5:20    0.0    26   30.2    13    274.8    14.1   606.0 
  42    5:30    0.0    26   30.3    14    269.9    16.5   606.0 
  42    5:40    0.0    26   30.4    14    273.9    16.5   606.0 
  42    5:50    0.0    26   30.6    13    273.4    14.1   606.0 
  42    6:00    0.0    26   30.4    11    281.2    11.8   606.1 
  42    6:10    0.0    26   30.0    10    277.4    11.8   606.2 
  42    6:20    0.0    26   31.7     9    295.7    11.8   606.2 
  42    6:30    0.0    25   32.6     7    295.0     9.4   606.2 
  42    6:40    0.0    25   33.1     6    297.0     7.1   606.2 
  42    6:50    0.0    25   33.5     6    288.2     9.4   606.3 
  42    7:00    0.0    26   32.6     5    283.9     7.1   606.3 
  42    7:10    0.0    26   32.3     4    281.2     7.1   606.3 
  42    7:20    0.0    27   31.5     3    279.1     4.7   606.3 
  42    7:30    0.0    28   28.1     2    267.1     4.7   606.3 
  42    7:40    0.0    29   24.4     5    217.9     7.1   606.3 
  42    7:50    0.0    30   24.9     5    200.1     7.1   606.3 
  42    8:00    0.0    30   24.5     7    190.0     7.1   606.4 
  42    8:10    0.0    31   23.3     6    180.1     7.1   606.4 
  42    8:20    0.0    31   22.7     7    173.1     9.4   606.4 
  42    8:30    0.0    31   23.7     8    160.4     9.4   606.4 
  42    8:40    0.0    33   24.2     7    152.3     9.4   606.5 
  42    8:50    0.0    34   22.2     9    153.1    11.8   606.5 
  42    9:00    0.0    34   22.5     7    164.3    11.8   606.6 
  42    9:10    0.0    33   22.6     7    179.7     9.4   606.5 
  42    9:20    0.0    33   22.4    10    159.6    11.8   606.6 
  42    9:30    0.0    33   21.6     9    163.6    11.8   606.7 
  42    9:40    0.0    34   21.4     9    165.9    11.8   606.8 
  42    9:50    0.0    35   21.9     6    169.8     9.4   606.8 
  42   10:00    0.0    35   21.5     7    175.1     9.4   606.9 
  42   10:10    0.0    35   21.8     7    180.7     9.4   606.9 
  42   10:20    0.0    34   23.5     9    193.4     9.4   606.9 
  42   10:30    0.0    32   25.1     8    212.7     9.4   606.9 
  42   10:40    0.0    33   24.5     9    199.9    11.8   606.9 
  42   10:50    0.0    33   25.1     9    202.7    11.8   606.9 
  42   11:00    0.0    34   24.7     8    207.1    11.8   606.9 
  42   11:10    0.0    35   23.5     9    213.4    11.8   606.8 
  42   11:20    0.0    34   23.9     8    219.2    11.8   606.7 
  42   11:30    0.0    34   22.4     9    224.3    11.8   606.7 
  42   11:40    0.0    34   20.8    10    214.8    11.8   606.7 
  42   11:50    0.0    34   19.9    10    217.3    14.1   606.6 
  42   12:00    0.0    34   20.3    10    229.4    11.8   606.6 
  42   12:10    0.0    34   21.0    11    230.1    14.1   606.5 
  42   12:20    0.0    33   21.4    12    227.1    14.1   606.4 
  42   12:30    0.0    33   21.6    13    228.3    16.5   606.3 
  42   12:40    0.0    33   23.1    13    237.6    16.5   606.2 
  42   12:50    0.0    33   23.3    13    244.1    16.5   606.1 
  42   13:00    0.0    34   24.4    16    253.8    23.5   606.0 
  42   13:10    0.0    33   24.0    16    235.1    21.2   605.9 
  42   13:20    0.0    32   24.0    16    233.3    21.2   605.8 
  42   13:30    0.0    34   23.5    18    255.4    23.5   605.7 
  42   13:40    0.0    35   22.2    18    259.6    23.5   605.7 
  42   13:50    0.0    36   21.8    20    261.1    23.5   605.6 
  42   14:00    0.0    36   21.7    19    265.1    23.5   605.6 
  42   14:10    0.0    37   20.8    22    266.5    30.6   605.6 
  42   14:20    0.0    37   19.2    20    263.2    28.2   605.6 
  42   14:30    0.0    36   19.0    21    266.4    28.2   605.6 
  42   14:40    0.0    36   19.5    21    263.5    25.9   605.6 
  42   14:50    0.0    35   21.4    23    267.1    28.2   605.6 
  42   15:00    0.0    36   21.8    25    269.7    30.6   605.6 
  42   15:10    0.0    34   20.2    26    268.7    30.6   605.6 
  42   15:20    0.0    34   21.5    24    269.9    28.2   605.6 
  42   15:30    0.0    33   22.3    25    268.4    28.2   605.7 
  42   15:40    0.0    34   21.7    24    266.3    25.9   605.7 
  42   15:50    0.0    33   20.0    25    268.7    28.2   605.7 
  42   16:00    0.0    33   21.4    25    266.7    28.2   605.7 
  42   16:10    0.0    33   22.2    28    266.4    33.0   605.6 
  42   16:20    0.0    32   26.1    28    270.0    33.0   605.6 
  42   16:30    0.0    31   24.5    30    272.4    33.0   605.5 
  42   16:40    0.0    30   24.2    29    272.2    33.0   605.6 
  42   16:50    0.0    29   24.7    29    271.8    33.0   605.6 
  42   17:00    0.0    29   23.0    28    271.8    30.6   605.6 
  42   17:10    0.0    29   22.0    29    271.1    33.0   605.6 
  42   17:20    0.0    28   23.3    31    270.6    35.3   605.5 
  42   17:30    0.0    28   23.7    35    270.0    40.0   605.4 
  42   17:40    0.0    28   20.3    36    270.8    40.0   605.5 
  42   17:50    0.0    28   19.5    36    270.9    40.0   605.5 
  42   18:00    0.0    28   20.2    33    271.8    37.7   605.6 
  42   18:10    0.0    28   19.8    33    271.6    35.3   605.7 
  42   18:20    0.0    28   18.2    31    270.1    35.3   605.7 
  42   18:30    0.0    27   17.5    30    270.1    35.3   605.7 
  42   18:40    0.0    27   19.5    33    271.9    35.3   605.7 
  42   18:50    0.0    27   19.7    32    272.8    37.7   605.7 
  42   19:00    0.0    27   17.5    33    272.4    37.7   605.6 
  42   19:10    0.0    27   18.9    29    272.7    33.0   605.7 
  42   19:20    0.0    27   19.3    27    272.6    30.6   605.7 
  42   19:30    0.0    26   19.8    25    273.7    28.2   605.8 
  42   19:40    0.0    26   20.0    25    273.4    28.2   605.8 
  42   19:50    0.0    26   19.4    24    275.7    25.9   605.9 
  42   20:00    0.0    26   19.0    22    271.3    25.9   605.9 
  42   20:10    0.0    26   14.5    22    261.5    25.9   605.9 
  42   20:20    0.0    26   12.4    20    252.0    23.5   606.0 
  42   20:30    0.0    26   12.0    15    231.7    18.8   606.1 
  42   20:40    0.0    26   10.9    16    230.9    18.8   606.0 
  42   20:50    0.0    25   11.5    21    261.1    25.9   605.9 
  42   21:00    0.0    26    8.7    23    256.0    25.9   605.9 
  42   21:10    0.0    26    8.8    22    257.0    25.9   605.9 
  42   21:20    0.0    26    8.9    22    255.3    25.9   606.0 

Return to White Mountain graphs page.


Western Regional Climate Center,wrcc@dri.edu